Pagina principale
METAR-TAF:

METAR-TAF

Aeroporti :

Jijel, Algeria

latitudine: 36-53N, longitudine: 005-49E, altezza: 2 m

Osservazione

Il bollettino è stato emesso 34 minuti fa, alle 10:00 UTC
Vento 6 kt da nord/nord-ovest
Temperature 26°C
Umidità 54%
Pressione 1018 hPa
Visibilità 10 km o più
nessuna nube inferiore a 1500 m e nessun cumulonembo

METAR: DAAV 211000Z 34006KT CAVOK 26/16 Q1018

Ora: 11:34 (10:34 UTC)

Previsione

Il bollettino è stato emesso 5 ore e 34 minuti fa, alle 05:00 UTC
Previsione valida dal 21 alle 06 UTC al 22 alle 06 UTC
Vento 10 kt da ovest/nord-ovest
Visibilità 10 km o più
Poco nuvoloso ad un'altezza di 2600 ft
Evoluzione graduale
dal 21 alle 12 UTC al 21 alle 14 UTC
Vento 15 kt da est
Evoluzione graduale
dal 21 alle 22 UTC al 21 alle 24 UTC
Vento 2 kt da direzioni variabili

TAF: DAAV 210500Z 2106/2206 29010KT 9999 FEW026 BECMG 2112/2114 09015KT BECMG 2122/2124 VRB02KT

Osservazioni e previsioni meteorologiche di più di 4000 aeroporti (messaggi METAR e TAF).

Le stazioni disponibili sono rappresentate dai dischi gialli e rossi sulla carta.

Puntare il mouse per vedere il nome della stazione.

Clicca sopra per visualizzare le osservazioni e previsioni meteorologiche.

Per cambiare la mappa : fare clic sui pulsanti verdi con una croce nera per ingrandire, il pulsante verde con un trattino per diminuire, o sulla freccia verde per le mappe adiacenti.


METAR-TAF: